Mto Cernay 68 altitude 308 m
Donnes mto: Actuelle mercredi, 28/06/2017 19:24
Date Horaire Temp. E. Hum. E. P.atmo. Pluie Vent Direction Direction Ensoleilleme T Pluie UV Solaire P. de rose Temp au vent Rafales
28/06/2017 19:24 17,9 C 80 % 997,9 hPa 1,3 l/m 12,0 km/h O-SO 252 0 min 15 min 0,0 UV-I 16 W/m 14,4 C 17,9 C 24,1 km/h
28/06/2017 18:24 21,4 C 69 % 996,5 hPa 0,0 l/m 12,3 km/h S 173 0 min 0 min 0,0 UV-I 23 W/m 15,5 C 21,4 C 27,4 km/h
28/06/2017 17:24 24,7 C 50 % 996,5 hPa 0,0 l/m 7,9 km/h S-SO 211 3 min 0 min 0,6 UV-I 128 W/m 13,6 C 24,7 C 14,5 km/h
28/06/2017 16:24 25,6 C 47 % 997,0 hPa 0,0 l/m 8,5 km/h SO 224 42 min 0 min 1,2 UV-I 192 W/m 13,4 C 25,6 C 16,1 km/h
28/06/2017 15:24 25,8 C 47 % 997,6 hPa 0,0 l/m 17,1 km/h SO 226 57 min 0 min 5,5 UV-I 863 W/m 13,6 C 25,8 C 25,7 km/h
28/06/2017 14:24 24,9 C 50 % 998,5 hPa 0,0 l/m 15,4 km/h O-SO 257 51 min 0 min 6,3 UV-I 782 W/m 13,7 C 24,9 C 27,4 km/h
28/06/2017 13:24 23,7 C 55 % 999,8 hPa 0,0 l/m 9,2 km/h O-SO 238 54 min 0 min 5,3 UV-I 448 W/m 14,1 C 23,7 C 19,3 km/h
28/06/2017 12:24 23,0 C 62 % 1000,5 hPa 0,0 l/m 8,1 km/h S-SO 213 45 min 0 min 5,2 UV-I 515 W/m 15,3 C 23,0 C 19,3 km/h
28/06/2017 11:24 21,4 C 66 % 1000,7 hPa 0,0 l/m 10,4 km/h S-SO 207 36 min 0 min 3,1 UV-I 960 W/m 14,8 C 21,4 C 20,9 km/h
28/06/2017 10:24 19,9 C 73 % 1001,2 hPa 0,0 l/m 17,1 km/h O-SO 246 9 min 0 min 1,5 UV-I 281 W/m 14,9 C 19,9 C 32,2 km/h
28/06/2017 09:24 18,4 C 78 % 1001,3 hPa 0,0 l/m 11,3 km/h S-SO 192 0 min 0 min 1,3 UV-I 121 W/m 14,5 C 18,4 C 22,5 km/h
28/06/2017 08:24 17,4 C 85 % 1001,4 hPa 0,0 l/m 14,0 km/h O 260 0 min 0 min 0,5 UV-I 148 W/m 14,8 C 17,4 C 24,1 km/h
28/06/2017 07:24 17,2 C 88 % 1001,2 hPa 0,0 l/m 13,4 km/h O-SO 242 0 min 0 min 0,0 UV-I 127 W/m 15,2 C 17,2 C 22,5 km/h
28/06/2017 06:24 17,4 C 87 % 1000,8 hPa 0,0 l/m 13,7 km/h SO 218 0 min 0 min 0,0 UV-I 16 W/m 15,2 C 17,4 C 25,7 km/h
28/06/2017 05:21 17,3 C 89 % 1001,0 hPa 0,3 l/m 10,9 km/h S-SO 213 0 min 3 min 0,0 UV-I 0 W/m 15,5 C 17,3 C 17,7 km/h
28/06/2017 04:21 17,7 C 89 % 1001,3 hPa 0,3 l/m 7,4 km/h S 176 0 min 3 min 0,0 UV-I 0 W/m 15,9 C 17,7 C 12,9 km/h
28/06/2017 03:21 17,8 C 88 % 1001,6 hPa 0,8 l/m 10,0 km/h SO 219 0 min 9 min 0,0 UV-I 0 W/m 15,8 C 17,8 C 16,1 km/h
28/06/2017 02:21 18,6 C 87 % 1001,7 hPa 0,3 l/m 14,4 km/h S-SO 210 0 min 3 min 0,0 UV-I 0 W/m 16,4 C 18,6 C 20,9 km/h
28/06/2017 01:21 19,6 C 85 % 1001,4 hPa 5,8 l/m 0,0 km/h SE 143 0 min 22 min 0,0 UV-I 0 W/m 17,0 C 19,6 C 0,0 km/h
28/06/2017 00:21 21,4 C 71 % 1000,3 hPa 0,0 l/m 5,9 km/h O 265 0 min 0 min 0,0 UV-I 0 W/m 15,9 C 21,4 C 11,3 km/h
28/06/2017 00:00 20,9 C 72 % 1000,5 hPa 0,0 l/m 6,0 km/h O 268 0 min 0 min 0,0 UV-I 0 W/m 15,7 C 20,9 C 11,3 km/h
_ Min-Heure 07:21 15:57 17:39 - 01:21 - - - - - - 17:15 07:21 01:21
Minimum _ 17,2 C 44 % 996,4 hPa - 0,0 km/h - - - - - - 13,0 C 17,2 C 0,0 km/h
_ Max-Heure 15:54 03:30 00:45 01:06 09:06 - - 10:40 00:49 12:18 12:09 01:48 15:54 11:57
Maximum _ 27,1 C 89 % 1002,2 hPa 2,0 l/m 20,5 km/h
SO
- - 4 min 4 min 7,1 UV-I 1139 W/m 17,3 C 27,1 C 38,6 km/h
O
Moyenne _ 20,7 C 72 % 1000,0 hPa #8,6 l/m 10,5 km/h SO - #4:57 h #55 min. 3,7 UV-I 389 W/m 15,1 C 20,7 C 19,9 km/h
Cernay (68)